Humidity-temperature Sensor

Selected Measurement Type: Air Temperature

 
Air Temperature [°C]     6 entries per hour
Showing data from 11/12/2014 (00:00:00 Z) to 11/11/2014 (00:01:00 Z)
Previous Next [ Day | 3-Days | 7-Days ]
First Last
Prev [ Day | 3-Days | 7-Days ] Next
First Last

Start Time:     :
End Time:     :     
Time (in GMT) :00 :50 :40 :30 :20 :10
Previous Next [ Day | 3-Days | 7-Days ]
First Last
Prev [ Day | 3-Days | 7-Days ] Next
First Last


123 => good data
MM => data is determined as missing
-- => data not received/configured
Back to Top Back to Top
11/12/2014 00:00 to 23:10 22.73 22.65 22.66 22.75 22.79 22.94
11/11/2014 23:00 to 22:10 22.81 22.83 22.69 22.76 22.74 22.78
11/11/2014 22:00 to 21:10 22.85 22.80 22.83 22.95 22.89 22.89
11/11/2014 21:00 to 20:10 22.82 23.02 23.01 23.04 22.86 23.02
11/11/2014 20:00 to 19:10 22.85 22.93 22.95 22.83 22.90 22.84
11/11/2014 19:00 to 18:10 22.71 22.71 22.65 22.94 23.05 22.95
11/11/2014 18:00 to 17:10 23.00 23.04 23.03 23.03 22.79 22.91
11/11/2014 17:00 to 16:10 22.65 22.84 22.72 22.66 22.50 22.34
11/11/2014 16:00 to 15:10 22.22 22.21 22.80 22.88 22.57 22.72
11/11/2014 15:00 to 14:10 22.53 22.45 22.12 22.07 22.17 22.54
11/11/2014 14:00 to 13:10 22.79 22.59 22.83 22.90 22.60 22.66
11/11/2014 13:00 to 12:10 22.52 22.69 22.65 22.61 22.50 22.42
11/11/2014 12:00 to 11:10 22.51 22.45 22.62 22.44 22.52 22.45
11/11/2014 11:00 to 10:10 22.47 22.53 22.51 22.43 22.43 22.51
11/11/2014 10:00 to 9:10 22.55 22.38 22.46 22.44 22.46 22.60
11/11/2014 09:00 to 8:10 22.71 22.71 22.71 22.61 22.50 22.52
11/11/2014 08:00 to 7:10 22.46 22.55 22.40 22.44 22.36 22.52
11/11/2014 07:00 to 6:10 22.41 22.47 22.51 22.50 22.35 22.47
11/11/2014 06:00 to 5:10 22.46 22.60 22.53 22.55 22.52 22.56
11/11/2014 05:00 to 4:10 -- -- -- -- -- --
11/11/2014 04:00 to 3:10 22.75 22.66 22.75 22.73 22.61 22.65
11/11/2014 03:00 to 2:10 22.61 22.65 22.58 22.71 22.50 22.51
11/11/2014 02:00 to 1:10 22.59 22.61 22.53 22.45 22.55 22.45
11/11/2014 01:00 to 0:10 22.46 22.49 22.28 22.22 22.37 22.33